Time;durP1;ratioP1;P1;durP2;ratioP2;P2;SDS_P1;SDS_P2;PMS_P1;PMS_P2;Temp;Humidity;BMP_temperature;BMP_pressure;BME280_temperature;BME280_humidity;BME280_pressure;Samples;Min_cycle;Max_cycle;Signal;HPM_P1;HPM_P2
2022/08/25 00:00:42;;;;;;;;;;;487.00;2380.80;;;;;;5070181;28;19912;-55
2022/08/25 00:03:08;;;;;;;;;;;487.00;2252.80;;;;;;5070146;28;19920;-56
2022/08/25 00:05:34;;;;;;;;;;;487.00;2380.80;;;;;;5070409;28;20278;-55
2022/08/25 00:08:00;;;;;;;;;;;487.00;2380.80;;;;;;5070310;28;19908;-56
2022/08/25 00:10:26;;;;;;;;;;;487.00;2380.80;;;;;;5070125;28;19920;-56
2022/08/25 00:12:51;;;;;;;;;;;487.10;2380.80;;;;;;5070485;28;19931;-55
2022/08/25 00:15:17;;;;;;;;;;;487.00;2380.80;;;;;;5070072;28;19966;-56
2022/08/25 00:17:42;;;;;;;;;;;486.90;2380.80;;;;;;5070315;28;19913;-55
2022/08/25 00:20:09;;;;;;;;;;;486.80;2380.80;;;;;;5070403;28;19909;-57
2022/08/25 00:22:34;;;;;;;;;;;486.80;2380.80;;;;;;5070195;28;19912;-58
2022/08/25 00:25:00;;;;;;;;;;;486.80;2380.80;;;;;;5070307;28;19908;-55
2022/08/25 00:27:26;;;;;;;;;;;486.70;2380.80;;;;;;5071380;28;19913;-56
2022/08/25 00:29:52;;;;;;;;;;;486.70;2380.80;;;;;;5073761;28;19934;-56
2022/08/25 00:32:18;;;;;;;;;;;486.70;2380.80;;;;;;5073542;28;20003;-56
2022/08/25 00:34:44;;;;;;;;;;;486.60;2380.80;;;;;;5073853;28;19909;-56
2022/08/25 00:37:09;;;;;;;;;;;486.50;2380.80;;;;;;5073686;28;19909;-56
2022/08/25 00:39:36;;;;;;;;;;;486.40;2380.80;;;;;;5073892;28;19923;-58
2022/08/25 00:42:03;;;;;;;;;;;461.70;2380.80;;;;;;5073585;28;19909;-57
2022/08/25 00:44:29;;;;;;;;;;;461.70;2380.80;;;;;;5073296;28;19916;-55
2022/08/25 00:46:56;;;;;;;;;;;461.70;2380.80;;;;;;5073522;28;20067;-55
2022/08/25 00:49:24;;;;;;;;;;;461.70;2380.80;;;;;;5073551;28;20374;-58
2022/08/25 00:52:00;;;;;;;;;;;461.70;2380.80;;;;;;5073446;28;19995;-57
2022/08/25 00:54:32;;;;;;;;;;;461.70;2380.80;;;;;;5073419;28;19948;-56
2022/08/25 00:56:59;;;;;;;;;;;461.70;2380.80;;;;;;5073117;28;19912;-58
2022/08/25 00:59:25;;;;;;;;;;;461.70;2380.80;;;;;;5073354;28;19939;-56
2022/08/25 01:01:51;;;;;;;;;;;461.70;2380.80;;;;;;5073221;28;19942;-57
2022/08/25 01:04:17;;;;;;;;;;;461.70;2380.80;;;;;;5072761;28;19943;-56
2022/08/25 01:06:43;;;;;;;;;;;461.70;2380.80;;;;;;5073358;28;19934;-55
2022/08/25 01:09:09;;;;;;;;;;;461.70;2380.80;;;;;;5072876;28;20278;-56
2022/08/25 01:11:35;;;;;;;;;;;486.40;2380.80;;;;;;5072872;28;19908;-55
2022/08/25 01:14:05;;;;;;;;;;;486.50;2380.80;;;;;;5073116;28;19916;-55
2022/08/25 01:16:33;;;;;;;;;;;486.50;2380.80;;;;;;5072949;28;19909;-55
2022/08/25 01:18:59;;;;;;;;;;;486.50;2380.80;;;;;;5073088;28;20371;-58
2022/08/25 01:21:27;;;;;;;;;;;486.50;2380.80;;;;;;5072968;28;19989;-56
2022/08/25 01:23:54;;;;;;;;;;;461.70;2380.80;;;;;;5073100;28;20005;-55
2022/08/25 01:26:25;;;;;;;;;;;461.70;2380.80;;;;;;5072530;28;20350;-57
2022/08/25 01:31:36;;;;;;;;;;;461.70;2380.80;;;;;;5072456;28;19923;-56
2022/08/25 01:34:04;;;;;;;;;;;461.70;2355.20;;;;;;5072998;28;19952;-54
2022/08/25 01:36:30;;;;;;;;;;;461.70;2073.60;;;;;;5072301;28;20282;-58
2022/08/25 01:38:55;;;;;;;;;;;461.70;2380.80;;;;;;5072137;28;19913;-57
2022/08/25 01:41:29;;;;;;;;;;;461.70;2380.80;;;;;;5072496;28;20360;-56
2022/08/25 01:43:55;;;;;;;;;;;486.40;2380.80;;;;;;5072311;28;19923;-55
2022/08/25 01:46:21;;;;;;;;;;;486.40;2380.80;;;;;;5072406;28;20356;-58
2022/08/25 01:48:46;;;;;;;;;;;486.50;2380.80;;;;;;5072186;28;19944;-55
2022/08/25 01:51:17;;;;;;;;;;;486.50;2380.80;;;;;;5072338;28;19908;-55
2022/08/25 01:53:43;;;;;;;;;;;486.50;2380.80;;;;;;5072447;28;20338;-58
2022/08/25 01:56:10;;;;;;;;;;;486.50;2380.80;;;;;;5072048;28;19955;-56
2022/08/25 01:58:38;;;;;;;;;;;486.50;2380.80;;;;;;5070939;28;19913;-56
2022/08/25 02:01:06;;;;;;;;;;;486.50;2380.80;;;;;;5071074;28;20277;-59
2022/08/25 02:03:32;;;;;;;;;;;486.60;2380.80;;;;;;5071228;28;20360;-57
2022/08/25 02:05:58;;;;;;;;;;;486.70;2380.80;;;;;;5070777;28;20011;-57
2022/08/25 02:08:24;;;;;;;;;;;486.70;2380.80;;;;;;5070971;28;20350;-58
2022/08/25 02:10:50;;;;;;;;;;;486.80;2380.80;;;;;;5070895;28;19916;-58
2022/08/25 02:13:16;;;;;;;;;;;486.80;2380.80;;;;;;5070573;28;19912;-56
2022/08/25 02:15:43;;;;;;;;;;;486.80;2380.80;;;;;;5070800;28;20368;-57
2022/08/25 02:18:09;;;;;;;;;;;486.90;2380.80;;;;;;5071405;28;19940;-56
2022/08/25 02:20:35;;;;;;;;;;;486.80;2380.80;;;;;;5071711;28;19915;-56
2022/08/25 02:23:01;;;;;;;;;;;486.60;2380.80;;;;;;5071331;28;19916;-57
2022/08/25 02:25:26;;;;;;;;;;;486.70;2380.80;;;;;;5070406;28;19961;-55
2022/08/25 02:27:52;;;;;;;;;;;486.80;2380.80;;;;;;5071073;28;19962;-57
2022/08/25 02:30:18;;;;;;;;;;;486.80;2380.80;;;;;;5071314;28;19920;-57
2022/08/25 02:32:43;;;;;;;;;;;486.90;2380.80;;;;;;5071708;28;20362;-57
2022/08/25 02:35:09;;;;;;;;;;;486.90;2380.80;;;;;;5071470;28;19908;-55
2022/08/25 02:37:35;;;;;;;;;;;486.90;2380.80;;;;;;5071669;28;19909;-58
2022/08/25 02:40:00;;;;;;;;;;;486.80;2380.80;;;;;;5071267;28;20366;-57
2022/08/25 02:42:26;;;;;;;;;;;486.90;2380.80;;;;;;5071118;28;19920;-56
2022/08/25 02:44:52;;;;;;;;;;;486.90;2329.60;;;;;;5071467;28;19916;-56
2022/08/25 02:47:18;;;;;;;;;;;486.90;2252.80;;;;;;5071161;28;20005;-55
2022/08/25 02:49:44;;;;;;;;;;;486.90;2380.80;;;;;;5070864;28;19909;-56
2022/08/25 02:52:10;;;;;;;;;;;486.90;2380.80;;;;;;5071288;28;19915;-55
2022/08/25 02:54:35;;;;;;;;;;;486.80;2380.80;;;;;;5071069;28;19912;-56
2022/08/25 02:57:01;;;;;;;;;;;486.80;2380.80;;;;;;5071090;28;19915;-57
2022/08/25 02:59:27;;;;;;;;;;;486.80;2380.80;;;;;;5070985;28;19947;-55
2022/08/25 03:01:52;;;;;;;;;;;486.70;2380.80;;;;;;5071104;28;19974;-55
2022/08/25 03:04:18;;;;;;;;;;;486.80;2380.80;;;;;;5070761;28;19986;-57
2022/08/25 03:06:44;;;;;;;;;;;486.80;2380.80;;;;;;5071242;28;20313;-55
2022/08/25 03:09:09;;;;;;;;;;;486.90;2380.80;;;;;;5070766;28;19909;-56
2022/08/25 03:11:37;;;;;;;;;;;486.90;2380.80;;;;;;5070905;28;19908;-55
2022/08/25 03:14:03;;;;;;;;;;;487.00;2380.80;;;;;;5070975;28;19909;-58
2022/08/25 03:16:30;;;;;;;;;;;487.00;2380.80;;;;;;5070784;28;20385;-55
2022/08/25 03:18:56;;;;;;;;;;;487.00;2380.80;;;;;;5070842;28;19951;-56
2022/08/25 03:21:23;;;;;;;;;;;486.90;2380.80;;;;;;5070962;28;19916;-56
2022/08/25 03:23:49;;;;;;;;;;;486.90;2380.80;;;;;;5070769;28;19916;-55
2022/08/25 03:28:59;;;;;;;;;;;486.80;2380.80;;;;;;5070456;28;19920;-58
2022/08/25 03:31:26;;;;;;;;;;;486.90;2380.80;;;;;;5070410;28;20369;-56
2022/08/25 03:33:53;;;;;;;;;;;486.80;2380.80;;;;;;5070857;28;19913;-55
2022/08/25 03:36:18;;;;;;;;;;;486.60;2380.80;;;;;;5070568;28;20422;-57
2022/08/25 03:38:44;;;;;;;;;;;486.80;2380.80;;;;;;5070794;28;19908;-55
2022/08/25 03:41:20;;;;;;;;;;;486.80;2380.80;;;;;;5070584;28;19909;-55
2022/08/25 03:43:46;;;;;;;;;;;486.90;2380.80;;;;;;5070487;28;19921;-55
2022/08/25 03:46:19;;;;;;;;;;;487.00;2380.80;;;;;;5071101;28;19931;-58
2022/08/25 03:48:45;;;;;;;;;;;487.10;2252.80;;;;;;5070841;28;19908;-58
2022/08/25 03:51:10;;;;;;;;;;;487.10;2201.60;;;;;;5070787;28;19908;-57
2022/08/25 03:53:36;;;;;;;;;;;487.10;2124.80;;;;;;5070532;28;19988;-56
2022/08/25 03:56:01;;;;;;;;;;;487.10;2380.80;;;;;;5070639;28;19909;-56
2022/08/25 03:58:27;;;;;;;;;;;487.10;2380.80;;;;;;5070398;28;19913;-57
2022/08/25 04:00:53;;;;;;;;;;;487.20;2380.80;;;;;;5071190;28;20053;-58
2022/08/25 04:03:18;;;;;;;;;;;487.10;2380.80;;;;;;5074005;28;19927;-55
2022/08/25 04:05:45;;;;;;;;;;;487.10;2380.80;;;;;;5074338;28;20015;-58
2022/08/25 04:08:10;;;;;;;;;;;487.10;2380.80;;;;;;5074287;28;19909;-54
2022/08/25 04:10:36;;;;;;;;;;;487.10;2380.80;;;;;;5074092;28;19912;-58
2022/08/25 04:13:01;;;;;;;;;;;487.10;2380.80;;;;;;5074151;28;19931;-55
2022/08/25 04:15:27;;;;;;;;;;;487.20;2380.80;;;;;;5073943;28;19909;-57
2022/08/25 04:17:53;;;;;;;;;;;487.20;2380.80;;;;;;5074419;28;19916;-58
2022/08/25 04:20:18;;;;;;;;;;;487.30;2380.80;;;;;;5074019;28;19915;-58
2022/08/25 04:22:44;;;;;;;;;;;487.30;2380.80;;;;;;5074041;28;19970;-57
2022/08/25 04:25:10;;;;;;;;;;;487.20;2380.80;;;;;;5073948;28;19935;-56
2022/08/25 04:27:36;;;;;;;;;;;487.20;2380.80;;;;;;5073537;28;19978;-56
2022/08/25 04:30:03;;;;;;;;;;;487.10;2380.80;;;;;;5074177;28;19956;-56
2022/08/25 04:32:31;;;;;;;;;;;487.00;2380.80;;;;;;5073651;28;19982;-56
2022/08/25 04:34:56;;;;;;;;;;;487.00;2380.80;;;;;;5073849;28;19951;-57
2022/08/25 04:37:22;;;;;;;;;;;487.00;2380.80;;;;;;5073909;28;20277;-57
2022/08/25 04:39:47;;;;;;;;;;;487.10;2380.80;;;;;;5073427;28;19908;-56
2022/08/25 04:42:13;;;;;;;;;;;487.20;2380.80;;;;;;5073633;28;19909;-56
2022/08/25 04:44:38;;;;;;;;;;;487.20;2380.80;;;;;;5073421;28;19924;-56
2022/08/25 04:47:04;;;;;;;;;;;487.20;2380.80;;;;;;5073801;28;20277;-56
2022/08/25 04:49:30;;;;;;;;;;;487.10;2380.80;;;;;;5073646;28;19935;-56
2022/08/25 04:51:56;;;;;;;;;;;487.10;2380.80;;;;;;5073515;28;20282;-55
2022/08/25 04:54:22;;;;;;;;;;;487.20;2380.80;;;;;;5073611;28;19908;-57
2022/08/25 04:56:49;;;;;;;;;;;487.30;2380.80;;;;;;5073208;28;19915;-57
2022/08/25 04:59:15;;;;;;;;;;;487.30;2380.80;;;;;;5073230;28;20373;-56
2022/08/25 05:01:45;;;;;;;;;;;512.00;2380.80;;;;;;5073032;28;20007;-55
2022/08/25 05:04:12;;;;;;;;;;;512.10;2380.80;;;;;;5073282;28;19924;-56
2022/08/25 05:06:38;;;;;;;;;;;512.10;2355.20;;;;;;5073232;28;19917;-57
2022/08/25 05:09:03;;;;;;;;;;;512.20;2380.80;;;;;;5073322;28;19915;-56
2022/08/25 05:11:29;;;;;;;;;;;512.30;2380.80;;;;;;5072042;28;20358;-57
2022/08/25 05:13:55;;;;;;;;;;;512.50;2380.80;;;;;;5068690;28;19937;-56
2022/08/25 05:16:22;;;;;;;;;;;512.50;2380.80;;;;;;5073145;28;19909;-56
2022/08/25 05:18:48;;;;;;;;;;;512.60;2380.80;;;;;;5072968;28;20287;-56
2022/08/25 05:21:14;;;;;;;;;;;512.60;2380.80;;;;;;5072873;28;19915;-56
2022/08/25 05:23:41;;;;;;;;;;;512.70;2380.80;;;;;;5072877;28;19923;-56
2022/08/25 05:26:10;;;;;;;;;;;512.80;2380.80;;;;;;5072711;28;19913;-55
2022/08/25 05:28:36;;;;;;;;;;;512.90;2380.80;;;;;;5072444;28;19916;-55
2022/08/25 05:31:03;;;;;;;;;;;512.90;2380.80;;;;;;5072570;28;19913;-56
2022/08/25 05:33:29;;;;;;;;;;;537.60;2406.40;;;;;;5072589;28;19955;-55
2022/08/25 05:35:55;;;;;;;;;;;537.80;2406.40;;;;;;5072543;28;20288;-56
2022/08/25 05:38:20;;;;;;;;;;;537.80;2406.40;;;;;;5072623;28;19916;-56
2022/08/25 05:40:46;;;;;;;;;;;538.00;2406.40;;;;;;5072411;28;19912;-56
2022/08/25 05:43:13;;;;;;;;;;;538.00;2406.40;;;;;;5072412;28;19924;-57
2022/08/25 05:45:39;;;;;;;;;;;538.10;2406.40;;;;;;5072214;28;19908;-56
2022/08/25 05:48:05;;;;;;;;;;;538.10;2406.40;;;;;;5072497;28;19908;-57
2022/08/25 05:50:30;;;;;;;;;;;538.30;2406.40;;;;;;5072328;28;19908;-56
2022/08/25 05:52:56;;;;;;;;;;;538.30;2406.40;;;;;;5072159;28;20377;-56
2022/08/25 05:55:22;;;;;;;;;;;538.50;2406.40;;;;;;5072313;28;20350;-57
2022/08/25 05:57:47;;;;;;;;;;;563.30;2432.00;;;;;;5071946;28;19908;-56
2022/08/25 06:00:13;;;;;;;;;;;563.60;2432.00;;;;;;5072145;28;19912;-57
2022/08/25 06:02:47;;;;;;;;;;;563.90;2432.00;;;;;;5071843;28;19919;-57
2022/08/25 06:05:12;;;;;;;;;;;588.90;2432.00;;;;;;5071917;28;20011;-56
2022/08/25 06:07:38;;;;;;;;;;;589.20;2432.00;;;;;;5072170;28;19960;-57
2022/08/25 06:10:05;;;;;;;;;;;589.40;2432.00;;;;;;5072015;28;19951;-56
2022/08/25 06:12:32;;;;;;;;;;;589.40;2432.00;;;;;;5071831;28;19915;-58
2022/08/25 06:14:57;;;;;;;;;;;589.40;2432.00;;;;;;5071470;28;20311;-55
2022/08/25 06:17:23;;;;;;;;;;;589.50;2432.00;;;;;;5071744;28;19908;-57
2022/08/25 06:19:48;;;;;;;;;;;589.40;2432.00;;;;;;5071511;28;19909;-56
2022/08/25 06:22:14;;;;;;;;;;;589.40;2432.00;;;;;;5071838;28;19958;-57
2022/08/25 06:24:40;;;;;;;;;;;589.30;2432.00;;;;;;5071446;28;19942;-55
2022/08/25 06:27:05;;;;;;;;;;;589.00;2432.00;;;;;;5071754;28;19920;-56
2022/08/25 06:29:31;;;;;;;;;;;588.90;2432.00;;;;;;5071456;28;20376;-56
2022/08/25 06:31:57;;;;;;;;;;;589.00;2432.00;;;;;;5071106;28;19923;-56
2022/08/25 06:34:22;;;;;;;;;;;589.40;2432.00;;;;;;5071530;28;19967;-56
2022/08/25 06:36:49;;;;;;;;;;;614.40;2432.00;;;;;;5071383;28;19913;-56
2022/08/25 06:39:14;;;;;;;;;;;614.70;2432.00;;;;;;5071562;28;20315;-56
2022/08/25 06:41:41;;;;;;;;;;;614.80;2432.00;;;;;;5071153;28;19966;-57
2022/08/25 06:44:06;;;;;;;;;;;615.00;2432.00;;;;;;5070963;28;19955;-57
2022/08/25 06:46:32;;;;;;;;;;;615.10;2432.00;;;;;;5071402;28;19916;-57
2022/08/25 06:48:58;;;;;;;;;;;614.90;2432.00;;;;;;5071123;28;19908;-57
2022/08/25 06:51:25;;;;;;;;;;;614.60;2432.00;;;;;;5071376;28;20390;-56
2022/08/25 06:53:51;;;;;;;;;;;589.70;2432.00;;;;;;5071304;28;19908;-56
2022/08/25 06:56:18;;;;;;;;;;;589.50;2432.00;;;;;;5070955;28;20103;-57
2022/08/25 06:58:43;;;;;;;;;;;589.40;2432.00;;;;;;5071154;28;19908;-57
2022/08/25 07:01:10;;;;;;;;;;;589.40;2432.00;;;;;;5070751;28;19999;-57
2022/08/25 07:03:36;;;;;;;;;;;589.50;2432.00;;;;;;5070967;28;19967;-57
2022/08/25 07:06:02;;;;;;;;;;;589.50;2432.00;;;;;;5071049;28;20362;-57
2022/08/25 07:08:27;;;;;;;;;;;589.60;2432.00;;;;;;5071088;28;20293;-56
2022/08/25 07:10:53;;;;;;;;;;;589.70;2432.00;;;;;;5070811;28;19917;-54
2022/08/25 07:13:19;;;;;;;;;;;589.60;2432.00;;;;;;5070454;28;19916;-56
2022/08/25 07:15:44;;;;;;;;;;;589.50;2432.00;;;;;;5070762;28;19913;-57
2022/08/25 07:18:10;;;;;;;;;;;589.50;2432.00;;;;;;5070710;28;19962;-57
2022/08/25 07:20:36;;;;;;;;;;;589.50;2432.00;;;;;;5070685;28;19935;-56
2022/08/25 07:23:02;;;;;;;;;;;589.30;2432.00;;;;;;5070935;28;20003;-56
2022/08/25 07:25:28;;;;;;;;;;;589.40;2432.00;;;;;;5070370;28;19975;-56
2022/08/25 07:27:53;;;;;;;;;;;589.50;2432.00;;;;;;5070895;28;19919;-57
2022/08/25 07:30:19;;;;;;;;;;;589.70;2432.00;;;;;;5070348;28;19952;-54
2022/08/25 07:32:44;;;;;;;;;;;589.70;2432.00;;;;;;5070556;28;19913;-57
2022/08/25 07:35:17;;;;;;;;;;;589.70;2432.00;;;;;;5070649;28;20325;-59
2022/08/25 07:37:48;;;;;;;;;;;614.70;2432.00;;;;;;5074168;28;19995;-57
2022/08/25 07:40:16;;;;;;;;;;;614.90;2432.00;;;;;;5075119;28;19991;-55
2022/08/25 07:42:42;;;;;;;;;;;615.10;2432.00;;;;;;5074708;28;20373;-56
2022/08/25 07:45:09;;;;;;;;;;;640.40;2432.00;;;;;;5074409;28;19908;-57
2022/08/25 07:47:35;;;;;;;;;;;640.90;2432.00;;;;;;5074965;28;19909;-58
2022/08/25 07:50:01;;;;;;;;;;;665.90;2432.00;;;;;;5074902;28;20369;-57
2022/08/25 07:52:27;;;;;;;;;;;665.90;2432.00;;;;;;5074456;28;19908;-57
2022/08/25 07:54:53;;;;;;;;;;;665.90;2432.00;;;;;;5074822;28;19909;-57
2022/08/25 07:57:21;;;;;;;;;;;665.90;2432.00;;;;;;5074122;28;20011;-57
2022/08/25 07:59:46;;;;;;;;;;;665.80;2432.00;;;;;;5073972;28;19919;-58
2022/08/25 08:02:12;;;;;;;;;;;665.70;2432.00;;;;;;5074568;28;19913;-57
2022/08/25 08:04:38;;;;;;;;;;;665.70;2432.00;;;;;;5073938;28;19978;-58
2022/08/25 08:07:04;;;;;;;;;;;665.60;2432.00;;;;;;5074500;28;19932;-57
2022/08/25 08:09:30;;;;;;;;;;;665.80;2432.00;;;;;;5074211;28;19908;-57
2022/08/25 08:11:56;;;;;;;;;;;666.20;2432.00;;;;;;5074090;28;20006;-58
2022/08/25 08:14:22;;;;;;;;;;;666.40;2432.00;;;;;;5074004;28;20396;-58
2022/08/25 08:16:48;;;;;;;;;;;691.20;2432.00;;;;;;5073270;28;19924;-58
2022/08/25 08:19:14;;;;;;;;;;;691.30;2432.00;;;;;;5073689;28;19954;-58
2022/08/25 08:21:40;;;;;;;;;;;691.20;2432.00;;;;;;5073547;28;19908;-59
2022/08/25 08:24:06;;;;;;;;;;;666.50;2432.00;;;;;;5073700;28;19917;-55
2022/08/25 08:26:31;;;;;;;;;;;666.50;2432.00;;;;;;5073450;28;19943;-58
2022/08/25 08:28:57;;;;;;;;;;;691.20;2432.00;;;;;;5073549;28;19913;-57
2022/08/25 08:31:25;;;;;;;;;;;691.30;2432.00;;;;;;5083102;28;20026;-57
2022/08/25 08:33:52;;;;;;;;;;;691.40;2432.00;;;;;;5082889;28;19974;-57
2022/08/25 08:36:18;;;;;;;;;;;691.30;2432.00;;;;;;5083380;28;20061;-57
2022/08/25 08:38:44;;;;;;;;;;;691.30;2432.00;;;;;;5083354;28;19958;-58
2022/08/25 08:44:12;;;;;;;;;;;691.30;2432.00;;;;;;5071251;28;20003;-57
2022/08/25 08:46:58;;;;;;;;;;;691.40;2432.00;;;;;;5073378;28;19940;-57
2022/08/25 08:49:30;;;;;;;;;;;691.30;2432.00;;;;;;5030562;28;19954;-56
2022/08/25 08:51:58;;;;;;;;;;;691.40;2432.00;;;;;;5031269;28;20045;-57
2022/08/25 08:54:24;;;;;;;;;;;691.40;2432.00;;;;;;5031281;28;19920;-58
2022/08/25 08:56:55;;;;;;;;;;;691.70;2432.00;;;;;;5031388;28;19921;-59
2022/08/25 08:59:24;;;;;;;;;;;691.80;2432.00;;;;;;5031302;28;19909;-57
2022/08/25 09:01:56;;;;;;;;;;;692.10;2432.00;;;;;;5031541;28;20387;-56
2022/08/25 09:04:28;;;;;;;;;;;716.90;2432.00;;;;;;5031062;28;19921;-58
2022/08/25 09:06:55;;;;;;;;;;;717.30;2432.00;;;;;;5031122;28;20330;-55
2022/08/25 09:09:29;;;;;;;;;;;742.40;2432.00;;;;;;5031004;28;19910;-58
2022/08/25 09:11:59;;;;;;;;;;;742.70;2432.00;;;;;;5031114;28;20015;-58
2022/08/25 09:14:38;;;;;;;;;;;742.70;2432.00;;;;;;5030832;28;20044;-57
2022/08/25 09:17:05;;;;;;;;;;;717.60;2432.00;;;;;;5030928;28;19910;-58
2022/08/25 09:19:31;;;;;;;;;;;;;;;;;;5030696;28;19932;-58
2022/08/25 09:22:01;;;;;;;;;;;743.20;2432.00;;;;;;5030810;28;19952;-58
2022/08/25 09:24:35;;;;;;;;;;;743.10;2380.80;;;;;;5030444;28;19924;-57
2022/08/25 09:27:19;;;;;;;;;;;743.20;2432.00;;;;;;5061098;28;19909;-58
2022/08/25 09:30:00;;;;;;;;;;;743.30;2355.20;;;;;;5072473;28;20371;-59
2022/08/25 09:32:31;;;;;;;;;;;768.20;2304.00;;;;;;5072598;28;20381;-57
2022/08/25 09:34:57;;;;;;;;;;;768.40;2278.40;;;;;;5072689;28;19955;-57
2022/08/25 09:37:23;;;;;;;;;;;768.40;2201.60;;;;;;5072825;28;20293;-57
2022/08/25 09:39:48;;;;;;;;;;;768.20;2278.40;;;;;;5072158;28;19947;-58
2022/08/25 09:42:14;;;;;;;;;;;768.40;2278.40;;;;;;5072446;28;19948;-57
2022/08/25 09:44:42;;;;;;;;;;;768.60;2278.40;;;;;;5072035;28;19917;-57
2022/08/25 09:47:17;;;;;;;;;;;768.60;2252.80;;;;;;5072394;28;19995;-58
2022/08/25 09:49:44;;;;;;;;;;;768.50;2252.80;;;;;;5072436;28;19909;-58
2022/08/25 09:52:30;;;;;;;;;;;768.30;2252.80;;;;;;5072299;28;19916;-57
2022/08/25 09:54:58;;;;;;;;;;;743.10;2304.00;;;;;;5072020;28;19942;-57
2022/08/25 09:57:42;;;;;;;;;;;743.00;2329.60;;;;;;5072155;28;19923;-59
2022/08/25 10:00:12;;;;;;;;;;;743.00;2380.80;;;;;;5071524;28;19935;-58
2022/08/25 10:02:38;;;;;;;;;;;742.80;2432.00;;;;;;5072128;28;19913;-58
2022/08/25 10:05:18;;;;;;;;;;;742.90;2432.00;;;;;;5071776;28;20395;-59
2022/08/25 10:07:53;;;;;;;;;;;742.40;2432.00;;;;;;5071972;28;19947;-58
2022/08/25 10:10:24;;;;;;;;;;;742.40;2406.40;;;;;;5071773;28;19912;-57
2022/08/25 10:12:50;;;;;;;;;;;742.50;2432.00;;;;;;5072091;28;19915;-59
2022/08/25 10:15:25;;;;;;;;;;;742.70;2432.00;;;;;;5071564;28;19912;-58
2022/08/25 10:17:51;;;;;;;;;;;742.70;2432.00;;;;;;5071871;28;19915;-57
2022/08/25 10:20:18;;;;;;;;;;;742.90;2432.00;;;;;;5071602;28;19962;-58
2022/08/25 10:22:44;;;;;;;;;;;742.90;2355.20;;;;;;5071653;28;19956;-58
2022/08/25 10:25:11;;;;;;;;;;;742.70;2355.20;;;;;;5071669;28;19915;-59
2022/08/25 10:27:52;;;;;;;;;;;742.70;2380.80;;;;;;5071367;28;19916;-57
2022/08/25 10:30:22;;;;;;;;;;;742.90;2432.00;;;;;;5071028;28;19991;-57
2022/08/25 10:32:51;;;;;;;;;;;743.10;2432.00;;;;;;5071245;28;20453;-58
2022/08/25 10:35:23;;;;;;;;;;;743.10;2432.00;;;;;;5071082;28;20031;-58
2022/08/25 10:37:48;;;;;;;;;;;743.30;2406.40;;;;;;5071138;28;20090;-57
2022/08/25 10:40:32;;;;;;;;;;;743.10;2406.40;;;;;;5071379;28;19994;-57
2022/08/25 10:43:06;;;;;;;;;;;743.10;2432.00;;;;;;5070998;28;19954;-59
2022/08/25 10:45:42;;;;;;;;;;;742.80;2432.00;;;;;;5071259;28;19908;-58
2022/08/25 10:48:13;;;;;;;;;;;717.50;2406.40;;;;;;5071122;28;19908;-58
2022/08/25 10:50:45;;;;;;;;;;;717.40;2432.00;;;;;;5071299;28;19908;-58
2022/08/25 10:53:12;;;;;;;;;;;717.50;2432.00;;;;;;5071222;28;19908;-57
2022/08/25 10:55:42;;;;;;;;;;;717.50;2432.00;;;;;;5071216;28;19979;-57
2022/08/25 10:58:25;;;;;;;;;;;742.40;2432.00;;;;;;5071047;28;19908;-59
2022/08/25 11:00:58;;;;;;;;;;;742.40;2432.00;;;;;;5070901;28;20301;-58
2022/08/25 11:03:23;;;;;;;;;;;717.60;2432.00;;;;;;5071211;28;19928;-57
2022/08/25 11:05:54;;;;;;;;;;;717.50;2432.00;;;;;;5070835;28;19925;-56
2022/08/25 11:08:25;;;;;;;;;;;742.40;2432.00;;;;;;5070887;28;19962;-59
2022/08/25 11:10:53;;;;;;;;;;;742.50;2432.00;;;;;;5070401;28;19908;-57
2022/08/25 11:13:26;;;;;;;;;;;742.90;2432.00;;;;;;5070844;28;20370;-57
2022/08/25 11:15:59;;;;;;;;;;;743.10;2432.00;;;;;;5070887;28;20358;-55
2022/08/25 11:18:27;;;;;;;;;;;742.90;2355.20;;;;;;5070890;28;20270;-56
2022/08/25 11:20:52;;;;;;;;;;;742.60;2380.80;;;;;;5071092;28;19909;-55
2022/08/25 11:23:23;;;;;;;;;;;742.80;2329.60;;;;;;5070502;28;20416;-57
2022/08/25 11:25:54;;;;;;;;;;;742.90;2432.00;;;;;;5070737;28;19909;-59
2022/08/25 11:28:29;;;;;;;;;;;743.20;2406.40;;;;;;5070859;28;19908;-58
2022/08/25 11:30:57;;;;;;;;;;;743.10;2355.20;;;;;;5070663;28;20428;-59
2022/08/25 11:33:24;;;;;;;;;;;743.20;2432.00;;;;;;5070950;28;19917;-59
2022/08/25 11:35:52;;;;;;;;;;;743.20;2278.40;;;;;;5070456;28;20362;-58
2022/08/25 11:38:18;;;;;;;;;;;743.30;2380.80;;;;;;5070630;28;20304;-59
2022/08/25 11:41:07;;;;;;;;;;;743.30;2355.20;;;;;;5071005;28;19908;-57
2022/08/25 11:43:33;;;;;;;;;;;768.00;2329.60;;;;;;5028586;28;19917;-57
2022/08/25 11:45:58;;;;;;;;;;;743.30;2355.20;;;;;;5028484;28;20318;-57
2022/08/25 11:48:34;;;;;;;;;;;768.10;2355.20;;;;;;5028706;28;19909;-57
2022/08/25 11:51:02;;;;;;;;;;;768.60;2278.40;;;;;;5028548;28;19996;-57
2022/08/25 11:53:29;;;;;;;;;;;768.60;2176.00;;;;;;5028488;28;19913;-56
2022/08/25 11:55:57;;;;;;;;;;;768.30;2201.60;;;;;;5028429;28;19909;-55
2022/08/25 11:58:30;;;;;;;;;;;768.30;2201.60;;;;;;5028689;28;20255;-57
2022/08/25 12:00:57;;;;;;;;;;;768.20;2304.00;;;;;;5028698;28;20309;-57
2022/08/25 12:03:31;;;;;;;;;;;768.00;2355.20;;;;;;5028554;28;20309;-57
2022/08/25 12:06:09;;;;;;;;;;;768.00;2329.60;;;;;;5028261;28;19925;-55
2022/08/25 12:08:55;;;;;;;;;;;768.10;2278.40;;;;;;5028542;28;19916;-57
2022/08/25 12:11:39;;;;;;;;;;;768.10;2304.00;;;;;;5014387;28;19916;-57
2022/08/25 12:14:23;;;;;;;;;;;768.10;2252.80;;;;;;5028346;28;20419;-56
2022/08/25 12:16:54;;;;;;;;;;;768.10;2227.20;;;;;;5028144;28;19910;-56
2022/08/25 12:19:46;;;;;;;;;;;743.30;2201.60;;;;;;5028265;28;20274;-56
2022/08/25 12:22:14;;;;;;;;;;;742.90;2278.40;;;;;;5071357;28;20353;-56
2022/08/25 12:24:43;;;;;;;;;;;742.80;2355.20;;;;;;5073713;28;19916;-57
2022/08/25 12:27:11;;;;;;;;;;;742.60;2329.60;;;;;;5073766;28;19908;-55
2022/08/25 12:29:40;;;;;;;;;;;742.50;2355.20;;;;;;5073644;28;20003;-56
2022/08/25 12:32:24;;;;;;;;;;;742.50;2355.20;;;;;;5073739;28;20560;-56
2022/08/25 12:34:50;;;;;;;;;;;742.70;2380.80;;;;;;5073191;28;20376;-57
2022/08/25 12:37:17;;;;;;;;;;;742.80;2406.40;;;;;;5073683;28;19908;-57
2022/08/25 12:40:03;;;;;;;;;;;742.80;2380.80;;;;;;5074083;28;20243;-57
2022/08/25 12:42:36;;;;;;;;;;;742.80;2406.40;;;;;;5072943;28;19915;-56
2022/08/25 12:45:22;;;;;;;;;;;742.90;2380.80;;;;;;5073477;28;19998;-58
2022/08/25 12:47:48;;;;;;;;;;;743.10;2329.60;;;;;;5073227;28;19915;-57
2022/08/25 12:50:24;;;;;;;;;;;743.20;2329.60;;;;;;5073621;28;20007;-58
2022/08/25 12:52:50;;;;;;;;;;;743.10;2252.80;;;;;;5073248;28;19909;-56
2022/08/25 12:55:18;;;;;;;;;;;743.20;2278.40;;;;;;5073336;28;20401;-56
2022/08/25 12:57:59;;;;;;;;;;;768.10;2227.20;;;;;;5073405;28;19915;-56
2022/08/25 13:00:27;;;;;;;;;;;768.10;2278.40;;;;;;5073300;28;20319;-57
2022/08/25 13:03:03;;;;;;;;;;;768.20;2201.60;;;;;;5073241;28;20074;-58
2022/08/25 13:05:48;;;;;;;;;;;768.10;2201.60;;;;;;5072938;28;19982;-58
2022/08/25 13:08:14;;;;;;;;;;;768.30;2227.20;;;;;;5073323;28;19915;-58
2022/08/25 13:10:50;;;;;;;;;;;768.10;2227.20;;;;;;5072864;28;20273;-56
2022/08/25 13:13:22;;;;;;;;;;;743.30;2201.60;;;;;;5073335;28;20539;-58
2022/08/25 13:16:02;;;;;;;;;;;743.10;2227.20;;;;;;5072943;28;19908;-58
2022/08/25 13:18:29;;;;;;;;;;;743.20;2227.20;;;;;;5072708;28;19915;-58
2022/08/25 13:21:04;;;;;;;;;;;743.30;2227.20;;;;;;5073041;28;19915;-56
2022/08/25 13:23:30;;;;;;;;;;;743.30;2227.20;;;;;;5072703;28;19917;-58
2022/08/25 13:25:56;;;;;;;;;;;743.10;2227.20;;;;;;5073112;28;20366;-58
2022/08/25 13:28:25;;;;;;;;;;;743.00;2278.40;;;;;;5072867;28;19915;-56
2022/08/25 13:30:58;;;;;;;;;;;743.00;2278.40;;;;;;5072368;28;19919;-57
2022/08/25 13:33:24;;;;;;;;;;;742.90;2304.00;;;;;;5072363;28;19955;-56
2022/08/25 13:38:37;;;;;;;;;;;742.90;2252.80;;;;;;5072968;28;20301;-57
2022/08/25 13:41:03;;;;;;;;;;;742.90;2278.40;;;;;;5072820;28;20259;-58
2022/08/25 13:43:28;;;;;;;;;;;742.80;2252.80;;;;;;5072294;28;19924;-57
2022/08/25 13:45:54;;;;;;;;;;;742.80;2278.40;;;;;;5072307;28;20289;-58
2022/08/25 13:48:33;;;;;;;;;;;742.80;2278.40;;;;;;5072211;28;20246;-57
2022/08/25 13:51:08;;;;;;;;;;;742.60;2304.00;;;;;;5072403;28;19909;-57
2022/08/25 13:53:33;;;;;;;;;;;742.60;2304.00;;;;;;5072389;28;20007;-56
2022/08/25 13:56:00;;;;;;;;;;;742.80;2304.00;;;;;;5072186;28;19955;-57
2022/08/25 13:58:28;;;;;;;;;;;742.80;2304.00;;;;;;5072360;28;19908;-55